Scott Bar, California
Current Conditions -  °F | °C
As of 8:53 PM on Friday 28 Nov 2014 (Local Time) from KSIY Reporting Station
Light Rain Light Rain  
Wind Chill:   Ceiling: 5000
Heat Index:   Visibility: 10mi
Dew Point:   Wind: 6mph
Humidity: 96%   Direction: 190°S
Pressure: 29.73"   Gusts: NA
Location:  41.74°N, 123°W
Report Text: KSIY 290453Z AUTO 19005KT 10SM -RA SCT042 OVC050 07/06 A2973 RMK AO2 SLP077 P0002 T00670061
Loading
Personal Weather Stations






























Interactive Weather Map New forecast layout! Learn more

10-Day Weather Forecast

Advertisements
Track Severe Weather on mobile